Time;durP1;ratioP1;P1;durP2;ratioP2;P2;SDS_P1;SDS_P2;PMS_P1;PMS_P2;Temp;Humidity;BMP_temperature;BMP_pressure;BME280_temperature;BME280_humidity;BME280_pressure;Samples;Min_cycle;Max_cycle;Signal;HPM_P1;HPM_P2
2022/06/27 00:00:56;;;;;;;8.48;7.88;;;25.70;99.90;;;;;;5028372;28;20593;-74
2022/06/27 00:03:24;;;;;;;8.65;7.88;;;25.60;99.90;;;;;;5028333;28;20216;-74
2022/06/27 00:05:51;;;;;;;8.82;8.05;;;25.60;99.90;;;;;;5028649;28;20205;-73
2022/06/27 00:08:17;;;;;;;8.38;7.78;;;25.60;99.90;;;;;;5028661;28;20444;-73
2022/06/27 00:10:44;;;;;;;8.63;7.95;;;25.60;99.90;;;;;;5028469;28;20208;-73
2022/06/27 00:13:11;;;;;;;8.52;8.02;;;25.60;99.90;;;;;;5022952;28;20220;-73
2022/06/27 00:15:38;;;;;;;8.85;7.18;;;25.50;99.90;;;;;;5008905;28;20213;-74
2022/06/27 00:18:05;;;;;;;8.25;7.65;;;25.50;99.90;;;;;;5008979;28;20209;-74
2022/06/27 00:20:33;;;;;;;8.43;7.78;;;25.40;99.90;;;;;;5008815;28;20228;-73
2022/06/27 00:23:00;;;;;;;8.82;8.00;;;25.40;99.90;;;;;;5008323;28;20206;-73
2022/06/27 00:25:27;;;;;;;8.85;7.80;;;25.30;99.90;;;;;;5011420;28;20213;-74
2022/06/27 00:27:54;;;;;;;8.77;8.10;;;25.40;99.90;;;;;;5028329;28;20213;-73
2022/06/27 00:30:21;;;;;;;8.50;7.88;;;25.40;99.90;;;;;;5027861;28;20221;-73
2022/06/27 00:32:48;;;;;;;8.27;7.65;;;25.40;99.90;;;;;;5027935;28;20219;-74
2022/06/27 00:35:16;;;;;;;8.85;8.30;;;25.30;99.90;;;;;;5028096;28;20220;-74
2022/06/27 00:37:44;;;;;;;7.85;7.25;;;25.30;99.90;;;;;;5027313;28;20594;-74
2022/06/27 00:40:11;;;;;;;8.40;7.78;;;25.30;99.90;;;;;;5028133;28;20212;-73
2022/06/27 00:42:38;;;;;;;8.70;8.10;;;25.40;99.90;;;;;;5009042;28;20239;-73
2022/06/27 00:45:06;;;;;;;7.88;7.32;;;25.40;99.90;;;;;;5027903;28;20676;-73
2022/06/27 00:47:33;;;;;;;8.05;7.55;;;25.30;99.90;;;;;;5027699;28;20216;-73
2022/06/27 00:49:59;;;;;;;9.00;8.18;;;25.30;99.90;;;;;;5027940;28;20228;-73
2022/06/27 00:52:27;;;;;;;8.68;7.82;;;25.30;99.90;;;;;;5027467;28;20243;-73
2022/06/27 00:54:57;;;;;;;8.88;8.27;;;25.20;99.90;;;;;;5027734;28;20663;-73
2022/06/27 00:57:24;;;;;;;8.65;7.93;;;25.20;99.90;;;;;;5027751;28;20215;-73
2022/06/27 00:59:51;;;;;;;8.57;8.00;;;25.20;99.90;;;;;;5026971;28;20201;-73
2022/06/27 01:02:18;;;;;;;8.75;8.13;;;25.20;99.90;;;;;;5027805;28;20235;-73
2022/06/27 01:04:45;;;;;;;8.63;8.02;;;25.20;99.90;;;;;;5027309;28;20209;-73
2022/06/27 01:07:11;;;;;;;8.90;8.20;;;25.20;99.90;;;;;;5027109;28;20209;-74
2022/06/27 01:09:39;;;;;;;9.23;8.30;;;25.10;99.90;;;;;;5027672;28;20231;-74
2022/06/27 01:12:08;;;;;;;8.52;7.70;;;25.10;99.90;;;;;;5027452;28;20213;-73
2022/06/27 01:14:35;;;;;;;8.30;7.78;;;25.10;99.90;;;;;;5019865;28;20212;-74
2022/06/27 01:17:03;;;;;;;9.07;8.30;;;25.10;99.90;;;;;;5027550;28;20659;-73
2022/06/27 01:19:29;;;;;;;9.05;8.35;;;25.10;99.90;;;;;;5020691;28;20202;-74
2022/06/27 01:21:57;;;;;;;8.98;8.32;;;25.10;99.90;;;;;;5011974;28;20228;-73
2022/06/27 01:24:27;;;;;;;8.55;7.85;;;25.10;99.90;;;;;;5027267;28;20228;-74
2022/06/27 01:26:54;;;;;;;8.27;7.68;;;25.10;99.90;;;;;;5027297;28;20205;-73
2022/06/27 01:29:21;;;;;;;8.57;7.93;;;25.10;99.90;;;;;;5026563;28;20209;-73
2022/06/27 01:31:49;;;;;;;8.80;8.00;;;25.10;99.90;;;;;;5026966;28;20761;-74
2022/06/27 01:34:17;;;;;;;9.20;8.55;;;25.10;99.90;;;;;;5023310;28;20205;-73
2022/06/27 01:36:45;;;;;;;8.93;8.23;;;25.10;99.90;;;;;;5007349;28;20217;-73
2022/06/27 01:39:14;;;;;;;9.35;8.52;;;25.10;99.90;;;;;;5007927;28;20208;-74
2022/06/27 01:41:44;;;;;;;9.10;8.30;;;25.10;99.90;;;;;;5007109;28;20245;-73
2022/06/27 01:44:13;;;;;;;9.38;8.40;;;25.10;99.90;;;;;;5021101;28;20258;-73
2022/06/27 01:46:41;;;;;;;9.15;8.50;;;25.00;99.90;;;;;;5027033;28;20718;-73
2022/06/27 01:49:08;;;;;;;8.77;8.18;;;25.00;99.90;;;;;;5027128;28;20656;-73
2022/06/27 01:51:36;;;;;;;8.27;7.75;;;25.00;99.90;;;;;;5026750;28;20216;-73
2022/06/27 01:54:03;;;;;;;9.02;8.43;;;25.00;99.90;;;;;;5027376;28;20213;-74
2022/06/27 01:56:30;;;;;;;9.25;8.30;;;25.00;99.90;;;;;;5016210;28;20205;-74
2022/06/27 01:58:59;;;;;;;9.18;8.38;;;25.00;99.90;;;;;;5007832;28;20206;-73
2022/06/27 02:01:26;;;;;;;9.15;8.45;;;25.00;99.90;;;;;;5007515;28;20230;-74
2022/06/27 02:03:54;;;;;;;10.25;9.23;;;24.90;99.90;;;;;;5007490;28;20214;-74
2022/06/27 02:06:21;;;;;;;8.70;8.15;;;24.90;99.90;;;;;;5007164;28;20684;-73
2022/06/27 02:08:51;;;;;;;8.82;8.15;;;24.90;99.90;;;;;;5007453;28;20210;-73
2022/06/27 02:11:18;;;;;;;9.48;8.70;;;24.90;99.90;;;;;;5013434;28;20196;-74
2022/06/27 02:13:46;;;;;;;9.68;8.98;;;24.80;99.90;;;;;;5016917;28;20214;-74
2022/06/27 02:16:15;;;;;;;8.75;7.97;;;24.80;99.90;;;;;;5007440;28;20216;-73
2022/06/27 02:18:44;;;;;;;8.95;8.07;;;24.80;99.90;;;;;;5016947;28;20296;-73
2022/06/27 02:21:12;;;;;;;8.70;8.10;;;24.80;99.90;;;;;;5030402;28;20395;-73
2022/06/27 02:23:40;;;;;;;8.90;8.30;;;24.80;99.90;;;;;;5027889;28;20228;-73
2022/06/27 02:26:12;;;;;;;9.02;8.00;;;24.80;99.90;;;;;;5016730;28;20220;-74
2022/06/27 02:28:40;;;;;;;9.23;8.63;;;24.80;99.90;;;;;;5030452;28;20219;-73
2022/06/27 02:31:11;;;;;;;9.30;8.50;;;24.70;99.90;;;;;;5010951;28;20555;-73
2022/06/27 02:33:42;;;;;;;9.25;8.55;;;24.70;99.90;;;;;;5010411;28;20213;-73
2022/06/27 02:36:13;;;;;;;10.00;9.10;;;24.80;99.90;;;;;;5010604;28;20208;-73
2022/06/27 02:38:41;;;;;;;8.82;8.23;;;24.70;99.90;;;;;;5010398;28;20198;-73
2022/06/27 02:41:11;;;;;;;8.77;8.18;;;24.60;99.90;;;;;;5010098;28;20240;-73
2022/06/27 02:43:39;;;;;;;10.25;9.55;;;24.40;99.90;;;;;;5019063;28;20223;-73
2022/06/27 02:46:09;;;;;;;8.98;8.48;;;24.40;99.90;;;;;;5030060;28;20222;-73
2022/06/27 02:48:39;;;;;;;8.77;8.18;;;24.40;99.90;;;;;;5030024;28;20211;-73
2022/06/27 02:51:10;;;;;;;9.55;8.82;;;24.40;99.90;;;;;;5029859;28;20223;-74
2022/06/27 02:53:47;;;;;;;9.77;8.93;;;24.40;99.90;;;;;;5029179;28;20694;-73
2022/06/27 02:56:21;;;;;;;9.65;8.90;;;24.40;99.90;;;;;;5009987;28;20193;-73
2022/06/27 02:58:55;;;;;;;10.18;9.27;;;24.50;99.90;;;;;;5009906;28;20194;-74
2022/06/27 03:01:22;;;;;;;9.57;8.85;;;24.40;99.90;;;;;;5010033;28;20272;-73
2022/06/27 03:03:53;;;;;;;10.13;9.52;;;24.50;99.90;;;;;;5009778;28;20216;-73
2022/06/27 03:06:21;;;;;;;9.68;9.00;;;24.40;99.90;;;;;;5009688;28;20232;-73
2022/06/27 03:08:48;;;;;;;10.40;9.55;;;24.40;99.90;;;;;;5009663;28;20209;-73
2022/06/27 03:11:17;;;;;;;10.40;9.60;;;24.40;99.90;;;;;;5009939;28;20217;-74
2022/06/27 03:13:46;;;;;;;10.35;9.45;;;24.40;99.90;;;;;;5019004;28;20216;-74
2022/06/27 03:16:13;;;;;;;10.90;10.05;;;24.40;99.90;;;;;;5029190;28;20578;-74
2022/06/27 03:18:40;;;;;;;10.25;9.55;;;24.50;99.90;;;;;;5029164;28;20205;-74
2022/06/27 03:21:08;;;;;;;9.50;8.73;;;24.60;99.90;;;;;;5028850;28;20725;-74
2022/06/27 03:23:35;;;;;;;10.50;9.90;;;24.70;99.90;;;;;;5029098;28;20228;-74
2022/06/27 03:26:02;;;;;;;10.20;9.30;;;24.70;99.90;;;;;;5014563;28;20202;-73
2022/06/27 03:28:29;;;;;;;9.80;9.10;;;24.80;99.90;;;;;;5009568;28;20489;-74
2022/06/27 03:30:56;;;;;;;9.73;9.00;;;24.80;99.90;;;;;;5015935;28;20613;-73
2022/06/27 03:33:23;;;;;;;10.63;9.93;;;24.80;99.90;;;;;;5017992;28;20211;-73
2022/06/27 03:35:50;;;;;;;10.05;9.35;;;24.80;99.90;;;;;;5016003;28;20205;-74
2022/06/27 03:38:19;;;;;;;10.20;9.50;;;24.80;99.90;;;;;;5009602;28;20216;-73
2022/06/27 03:40:45;;;;;;;9.80;9.20;;;24.80;99.90;;;;;;5009314;28;20268;-73
2022/06/27 03:43:12;;;;;;;10.27;9.57;;;24.90;99.90;;;;;;5009939;28;20229;-73
2022/06/27 03:45:39;;;;;;;9.50;8.90;;;24.80;99.90;;;;;;5009404;28;20212;-74
2022/06/27 03:48:06;;;;;;;10.13;9.20;;;24.90;99.90;;;;;;5009857;28;20238;-74
2022/06/27 03:50:33;;;;;;;9.68;9.05;;;24.90;99.90;;;;;;5009401;28;20206;-74
2022/06/27 03:53:01;;;;;;;10.02;9.43;;;24.90;99.90;;;;;;5022324;28;20423;-74
2022/06/27 03:55:30;;;;;;;10.55;9.57;;;24.90;99.90;;;;;;5029047;28;20212;-73
2022/06/27 03:57:59;;;;;;;10.57;9.77;;;24.80;99.90;;;;;;5028925;28;20200;-73
2022/06/27 04:00:31;;;;;;;10.73;9.98;;;24.90;99.90;;;;;;5009986;28;20660;-73
2022/06/27 04:02:59;;;;;;;10.45;9.82;;;24.90;99.90;;;;;;5009134;28;20221;-73
2022/06/27 04:05:26;;;;;;;10.00;9.30;;;24.90;99.90;;;;;;5008816;28;20214;-73
2022/06/27 04:07:53;;;;;;;10.57;9.88;;;25.00;99.90;;;;;;5008707;28;20209;-74
2022/06/27 04:10:20;;;;;;;10.35;9.57;;;24.90;99.90;;;;;;5026258;28;20216;-73
2022/06/27 04:12:48;;;;;;;10.57;9.68;;;25.00;99.90;;;;;;5010676;28;20216;-73
2022/06/27 04:15:15;;;;;;;10.25;9.38;;;24.90;99.90;;;;;;5028425;28;20221;-73
2022/06/27 04:17:41;;;;;;;10.68;9.98;;;24.90;99.90;;;;;;5028365;28;20209;-73
2022/06/27 04:20:09;;;;;;;11.13;10.15;;;24.90;99.90;;;;;;5028373;28;20216;-73
2022/06/27 04:22:36;;;;;;;10.25;9.48;;;24.90;99.90;;;;;;5027582;28;20237;-73
2022/06/27 04:25:05;;;;;;;10.40;9.65;;;25.00;99.90;;;;;;5028357;28;20205;-73
2022/06/27 04:27:32;;;;;;;11.10;10.20;;;24.90;99.90;;;;;;5028129;28;20209;-73
2022/06/27 04:30:00;;;;;;;10.52;9.93;;;25.00;99.90;;;;;;5028084;28;20212;-73
2022/06/27 04:32:28;;;;;;;10.77;9.98;;;24.90;99.90;;;;;;5027501;28;20208;-73
2022/06/27 04:34:54;;;;;;;10.82;10.02;;;24.90;99.90;;;;;;5028189;28;20209;-73
2022/06/27 04:37:21;;;;;;;10.48;9.70;;;24.90;99.90;;;;;;5027229;28;20674;-73
2022/06/27 04:39:49;;;;;;;9.73;9.10;;;24.90;99.90;;;;;;5026599;28;20303;-73
2022/06/27 04:42:18;;;;;;;10.15;9.38;;;24.90;99.90;;;;;;5026409;28;20237;-73
2022/06/27 04:44:45;;;;;;;11.07;10.10;;;24.90;99.90;;;;;;5009398;28;20224;-74
2022/06/27 04:47:14;;;;;;;10.27;9.55;;;25.00;99.90;;;;;;5008250;28;20205;-74
2022/06/27 04:49:42;;;;;;;10.10;9.40;;;25.00;99.90;;;;;;5008430;28;20220;-73
2022/06/27 04:52:11;;;;;;;9.95;9.35;;;25.00;99.90;;;;;;5014641;28;20216;-73
2022/06/27 04:54:38;;;;;;;9.68;9.05;;;25.00;99.90;;;;;;5027752;28;20212;-74
2022/06/27 04:57:06;;;;;;;10.30;9.38;;;25.00;99.90;;;;;;5027704;28;20255;-73
2022/06/27 04:59:33;;;;;;;9.93;9.32;;;25.00;99.90;;;;;;5027690;28;20211;-73
2022/06/27 05:02:00;;;;;;;9.90;9.20;;;25.10;99.90;;;;;;5026639;28;20228;-73
2022/06/27 05:04:30;;;;;;;10.38;9.73;;;25.10;99.90;;;;;;5026640;28;20686;-73
2022/06/27 05:06:57;;;;;;;10.60;9.80;;;25.20;99.90;;;;;;5027548;28;20215;-73
2022/06/27 05:09:24;;;;;;;10.13;9.52;;;25.20;99.90;;;;;;5027504;28;20208;-73
2022/06/27 05:11:53;;;;;;;9.98;9.27;;;25.20;99.90;;;;;;5027819;28;20209;-73
2022/06/27 05:14:19;;;;;;;9.77;8.95;;;25.20;99.90;;;;;;5026270;28;20204;-74
2022/06/27 05:16:47;;;;;;;9.38;8.85;;;25.30;99.90;;;;;;5027318;28;20212;-73
2022/06/27 05:19:14;;;;;;;9.40;8.57;;;25.30;99.90;;;;;;5025652;28;20675;-74
2022/06/27 05:21:42;;;;;;;8.98;8.35;;;25.30;99.90;;;;;;5020599;28;20213;-74
2022/06/27 05:24:09;;;;;;;9.57;8.60;;;25.40;99.90;;;;;;5007590;28;20238;-73
2022/06/27 05:26:36;;;;;;;25.52;10.85;;;25.40;99.90;;;;;;5007596;28;20211;-73
2022/06/27 05:29:03;;;;;;;10.27;9.35;;;25.40;99.90;;;;;;5009986;28;20210;-74
2022/06/27 05:31:33;;;;;;;9.55;8.80;;;25.40;99.90;;;;;;5027168;28;20668;-73
2022/06/27 05:34:00;;;;;;;9.48;8.63;;;25.50;99.90;;;;;;5027578;28;20209;-73
2022/06/27 05:36:27;;;;;;;9.20;8.43;;;25.50;99.90;;;;;;5027474;28;20215;-73
2022/06/27 05:38:56;;;;;;;9.18;8.57;;;25.50;99.90;;;;;;5027666;28;20570;-73
2022/06/27 05:41:22;;;;;;;8.88;8.35;;;25.50;99.90;;;;;;5027355;28;20237;-74
2022/06/27 05:43:49;;;;;;;9.07;8.48;;;25.60;99.90;;;;;;5027054;28;20331;-74
2022/06/27 05:46:16;;;;;;;8.80;8.10;;;25.60;99.90;;;;;;5027181;28;20209;-73
2022/06/27 05:48:44;;;;;;;9.10;8.48;;;25.60;99.90;;;;;;5027744;28;20212;-74
2022/06/27 05:51:11;;;;;;;9.35;8.65;;;25.60;99.90;;;;;;5026814;28;20212;-73
2022/06/27 05:53:38;;;;;;;9.32;8.63;;;25.70;99.90;;;;;;5029688;28;20299;-74
2022/06/27 05:56:09;;;;;;;9.05;8.35;;;25.70;99.90;;;;;;5031045;28;20691;-73
2022/06/27 05:58:38;;;;;;;8.70;8.00;;;25.70;99.90;;;;;;5030919;28;20232;-73
2022/06/27 06:01:09;;;;;;;8.73;8.13;;;25.80;99.90;;;;;;5031096;28;20208;-74
2022/06/27 06:03:36;;;;;;;9.05;8.25;;;25.80;99.90;;;;;;5030028;28;20722;-74
2022/06/27 06:06:06;;;;;;;8.63;7.90;;;25.80;99.90;;;;;;5030444;28;20711;-73
2022/06/27 06:08:36;;;;;;;7.97;7.38;;;25.80;99.90;;;;;;5030699;28;20229;-74
2022/06/27 06:11:13;;;;;;;8.13;7.63;;;25.90;99.90;;;;;;5030551;28;20236;-74
2022/06/27 06:13:43;;;;;;;8.15;7.65;;;25.90;99.90;;;;;;5030528;28;20211;-73
2022/06/27 06:16:10;;;;;;;7.72;7.00;;;25.90;99.90;;;;;;5031102;28;20193;-73
2022/06/27 06:18:37;;;;;;;8.10;7.60;;;26.00;99.90;;;;;;5030325;28;20286;-74
2022/06/27 06:21:08;;;;;;;7.60;7.20;;;26.00;99.90;;;;;;5029951;28;20216;-73
2022/06/27 06:23:36;;;;;;;7.43;7.00;;;26.00;99.90;;;;;;5029962;28;20696;-73
2022/06/27 06:26:05;;;;;;;7.25;6.75;;;26.10;99.90;;;;;;5030716;28;20235;-74
2022/06/27 06:28:34;;;;;;;7.35;6.82;;;26.10;99.90;;;;;;5029850;28;20655;-74
2022/06/27 06:31:03;;;;;;;6.97;6.57;;;26.10;99.90;;;;;;5030244;28;20211;-74
2022/06/27 06:33:34;;;;;;;7.05;6.57;;;26.10;99.90;;;;;;5030306;28;20254;-74
2022/06/27 06:36:01;;;;;;;6.95;6.50;;;26.20;99.90;;;;;;5030197;28;20239;-74
2022/06/27 06:38:29;;;;;;;7.55;6.80;;;26.20;99.90;;;;;;5030190;28;20215;-74
2022/06/27 06:40:56;;;;;;;6.95;6.55;;;26.20;99.90;;;;;;5030242;28;20243;-74
2022/06/27 06:43:23;;;;;;;7.20;6.78;;;26.30;99.90;;;;;;5029908;28;20339;-74
2022/06/27 06:45:50;;;;;;;6.75;6.18;;;26.30;99.90;;;;;;5030253;28;20795;-74
2022/06/27 06:48:19;;;;;;;7.38;6.78;;;26.30;99.90;;;;;;5030284;28;20200;-74
2022/06/27 06:50:46;;;;;;;6.80;6.35;;;26.40;99.90;;;;;;5029489;28;20204;-74
2022/06/27 06:53:16;;;;;;;6.93;6.38;;;26.40;99.90;;;;;;5014869;28;20214;-74
2022/06/27 06:55:44;;;;;;;6.72;6.20;;;26.40;99.90;;;;;;5010248;28;20588;-74
2022/06/27 06:58:11;;;;;;;7.57;6.10;;;26.40;99.90;;;;;;5010145;28;20228;-74
2022/06/27 07:00:38;;;;;;;6.25;5.78;;;26.40;99.90;;;;;;5024346;28;20235;-74
2022/06/27 07:03:05;;;;;;;6.85;6.40;;;26.50;99.90;;;;;;5029607;28;20228;-74
2022/06/27 07:05:34;;;;;;;8.30;6.38;;;26.50;99.90;;;;;;5029027;28;20746;-74
2022/06/27 07:08:03;;;;;;;6.25;5.85;;;26.60;99.90;;;;;;5029449;28;20663;-74
2022/06/27 07:10:30;;;;;;;6.60;6.10;;;26.60;99.90;;;;;;5029721;28;20209;-74
2022/06/27 07:12:57;;;;;;;6.18;5.85;;;26.60;99.90;;;;;;5029460;28;20239;-74
2022/06/27 07:15:24;;;;;;;6.90;6.40;;;26.70;99.90;;;;;;5030002;28;20205;-74
2022/06/27 07:17:52;;;;;;;6.47;6.00;;;26.70;99.90;;;;;;5029742;28;20212;-74
2022/06/27 07:20:19;;;;;;;6.28;5.97;;;26.70;99.90;;;;;;5029980;28;20205;-74
2022/06/27 07:22:49;;;;;;;6.47;6.00;;;26.70;99.90;;;;;;5029150;28;20236;-74
2022/06/27 07:25:17;;;;;;;6.57;5.97;;;26.70;99.90;;;;;;5029498;28;20209;-74
2022/06/27 07:27:44;;;;;;;6.15;5.75;;;26.80;99.90;;;;;;5029273;28;20208;-75
2022/06/27 07:30:13;;;;;;;6.70;5.85;;;26.80;99.90;;;;;;5029297;28;20208;-74
2022/06/27 07:32:41;;;;;;;5.45;5.15;;;26.80;99.90;;;;;;5029132;28;20209;-74
2022/06/27 07:35:11;;;;;;;5.93;5.35;;;26.90;99.90;;;;;;5029329;28;20219;-74
2022/06/27 07:37:39;;;;;;;6.55;6.03;;;26.90;99.90;;;;;;5028436;28;20248;-74
2022/06/27 07:40:09;;;;;;;5.85;5.50;;;26.90;99.90;;;;;;5029137;28;20213;-74
2022/06/27 07:42:37;;;;;;;6.00;5.65;;;26.90;99.90;;;;;;5028651;28;20245;-74
2022/06/27 07:45:05;;;;;;;5.80;5.40;;;26.90;99.90;;;;;;5029063;28;20212;-74
2022/06/27 07:47:32;;;;;;;5.68;5.20;;;27.00;99.90;;;;;;5028995;28;20420;-74
2022/06/27 07:49:59;;;;;;;5.20;4.90;;;27.00;99.90;;;;;;5028532;28;20209;-74
2022/06/27 07:52:25;;;;;;;5.72;5.32;;;27.00;99.90;;;;;;5019794;28;20205;-74
2022/06/27 07:54:52;;;;;;;5.65;5.25;;;27.00;99.90;;;;;;5009158;28;20216;-74
2022/06/27 07:57:21;;;;;;;5.07;4.88;;;27.10;99.90;;;;;;5026822;28;20212;-74
2022/06/27 07:59:51;;;;;;;7.82;5.03;;;27.10;99.90;;;;;;5028327;28;20731;-74
2022/06/27 08:02:18;;;;;;;5.00;4.80;;;27.10;99.90;;;;;;5028409;28;20213;-74
2022/06/27 08:04:45;;;;;;;5.50;5.10;;;27.10;99.90;;;;;;5028305;28;20209;-74
2022/06/27 08:07:11;;;;;;;5.78;4.80;;;27.20;99.90;;;;;;5028271;28;20215;-74
2022/06/27 08:09:39;;;;;;;5.30;4.90;;;27.20;99.90;;;;;;5027889;28;20212;-74
2022/06/27 08:12:06;;;;;;;5.00;4.68;;;27.20;99.90;;;;;;5028216;28;20236;-74
2022/06/27 08:14:35;;;;;;;5.32;4.40;;;27.20;99.90;;;;;;5027919;28;20212;-74
2022/06/27 08:17:01;;;;;;;3.90;3.60;;;27.30;99.90;;;;;;5028284;28;20299;-74
2022/06/27 08:19:29;;;;;;;5.45;4.90;;;27.30;99.90;;;;;;5027873;28;20204;-74
2022/06/27 08:21:56;;;;;;;6.70;3.88;;;27.40;99.90;;;;;;5028216;28;20342;-74
2022/06/27 08:24:23;;;;;;;4.40;4.05;;;27.50;99.90;;;;;;5028353;28;20236;-74
2022/06/27 08:26:50;;;;;;;4.30;3.90;;;27.50;99.90;;;;;;5028149;28;20204;-74
2022/06/27 08:29:17;;;;;;;4.55;4.10;;;27.60;99.90;;;;;;5028096;28;20204;-74
2022/06/27 08:31:46;;;;;;;5.57;3.92;;;27.60;99.90;;;;;;5028182;28;20240;-74
2022/06/27 08:34:14;;;;;;;4.18;3.88;;;27.70;99.90;;;;;;5027975;28;20220;-74
2022/06/27 08:36:41;;;;;;;4.25;3.63;;;27.70;99.90;;;;;;5027684;28;20211;-74
2022/06/27 08:39:11;;;;;;;3.80;3.50;;;27.80;99.90;;;;;;5028105;28;20287;-74
2022/06/27 08:41:38;;;;;;;4.22;3.83;;;27.90;99.90;;;;;;5027627;28;20268;-74
2022/06/27 08:44:07;;;;;;;4.45;4.15;;;27.90;99.90;;;;;;5027885;28;20318;-75
2022/06/27 08:46:34;;;;;;;4.20;3.90;;;27.90;99.90;;;;;;5027821;28;20649;-74
2022/06/27 08:49:05;;;;;;;5.03;3.90;;;28.00;99.90;;;;;;5028058;28;20576;-74
2022/06/27 08:51:33;;;;;;;4.10;3.90;;;28.10;99.50;;;;;;5026168;28;20193;-74
2022/06/27 08:54:00;;;;;;;4.18;3.70;;;28.10;99.20;;;;;;5027251;28;20216;-74
2022/06/27 08:56:30;;;;;;;4.60;3.85;;;28.10;99.30;;;;;;5027703;28;20216;-74
2022/06/27 08:58:58;;;;;;;4.57;4.10;;;28.20;99.90;;;;;;5027812;28;20201;-74
2022/06/27 09:01:27;;;;;;;4.07;3.78;;;28.20;99.90;;;;;;5027776;28;20212;-74
2022/06/27 09:04:01;;;;;;;3.55;3.25;;;28.30;99.90;;;;;;5027401;28;20810;-74
2022/06/27 09:06:33;;;;;;;3.80;3.60;;;28.30;99.90;;;;;;5027302;28;20231;-74
2022/06/27 09:09:06;;;;;;;5.07;3.70;;;28.40;99.40;;;;;;5027306;28;20244;-74
2022/06/27 09:11:35;;;;;;;3.50;3.30;;;28.40;99.10;;;;;;5027473;28;20189;-74
2022/06/27 09:14:05;;;;;;;3.50;3.28;;;28.40;99.40;;;;;;5027515;28;20212;-75
2022/06/27 09:16:32;;;;;;;3.38;3.17;;;28.50;99.70;;;;;;5027580;28;20259;-73
2022/06/27 09:19:00;;;;;;;3.75;3.55;;;28.60;99.90;;;;;;5027579;28;20718;-73
2022/06/27 09:21:28;;;;;;;3.45;3.15;;;28.60;99.90;;;;;;5027337;28;20240;-73
2022/06/27 09:24:00;;;;;;;3.60;3.30;;;28.60;99.70;;;;;;5027507;28;20229;-73
2022/06/27 09:26:29;;;;;;;3.90;3.67;;;28.60;98.90;;;;;;5027528;28;20247;-73
2022/06/27 09:28:59;;;;;;;3.80;3.50;;;28.70;99.60;;;;;;5030637;28;20204;-73
2022/06/27 09:31:37;;;;;;;4.68;3.33;;;28.70;98.90;;;;;;5031402;28;20295;-73
2022/06/27 09:34:14;;;;;;;3.60;3.30;;;28.80;97.80;;;;;;5031168;28;20674;-73
2022/06/27 09:36:44;;;;;;;3.80;3.50;;;28.80;98.30;;;;;;5031061;28;20299;-73
2022/06/27 09:39:28;;;;;;;3.60;3.30;;;29.00;98.40;;;;;;5031582;28;20193;-73
2022/06/27 09:41:58;;;;;;;3.65;3.40;;;29.00;98.80;;;;;;5031069;28;20865;-73
2022/06/27 09:44:28;;;;;;;3.55;3.10;;;29.00;98.60;;;;;;5031448;28;20228;-73
2022/06/27 09:47:05;;;;;;;6.22;3.38;;;29.10;98.50;;;;;;5031631;28;20197;-73
2022/06/27 09:49:34;;;;;;;3.88;3.58;;;29.10;98.40;;;;;;5028967;28;20263;-73
2022/06/27 09:52:04;;;;;;;4.13;3.60;;;29.10;98.40;;;;;;5031045;28;20196;-73
2022/06/27 09:54:34;;;;;;;3.35;3.15;;;29.10;98.20;;;;;;5031221;28;20208;-73
2022/06/27 09:57:02;;;;;;;3.50;3.30;;;29.20;97.60;;;;;;5030905;28;20216;-73
2022/06/27 09:59:30;;;;;;;4.10;3.80;;;29.30;98.00;;;;;;5030510;28;20201;-73
2022/06/27 10:01:57;;;;;;;3.92;3.65;;;29.30;99.00;;;;;;5030862;28;20420;-73
2022/06/27 10:04:25;;;;;;;4.45;3.70;;;29.30;99.20;;;;;;5030622;28;20770;-73
2022/06/27 10:06:54;;;;;;;3.63;3.42;;;29.40;99.30;;;;;;5030786;28;20217;-73
2022/06/27 10:09:24;;;;;;;4.68;3.35;;;29.50;98.50;;;;;;5030807;28;20205;-73
2022/06/27 10:12:22;;;;;;;7.03;3.60;;;29.50;97.90;;;;;;5031060;28;20205;-73
2022/06/27 10:15:23;;;;;;;3.67;3.47;;;29.50;98.30;;;;;;5030005;28;20750;-73
2022/06/27 10:17:52;;;;;;;3.28;3.10;;;29.60;97.40;;;;;;5030551;28;20737;-73
2022/06/27 10:20:20;;;;;;;4.65;3.30;;;29.70;97.90;;;;;;5030610;28;20267;-73
2022/06/27 10:22:49;;;;;;;3.00;2.90;;;29.80;97.20;;;;;;5030316;28;20239;-73
2022/06/27 10:25:34;;;;;;;2.70;2.60;;;29.90;96.70;;;;;;5030444;28;20240;-73
2022/06/27 10:30:55;;;;;;;2.80;2.58;;;30.00;96.40;;;;;;5085095;27;20564;-73
2022/06/27 10:33:38;;;;;;;3.13;2.22;;;30.20;94.50;;;;;;5084953;28;20795;-73
2022/06/27 10:36:15;;;;;;;2.70;2.50;;;30.30;95.20;;;;;;5085056;28;20211;-73
2022/06/27 10:38:50;;;;;;;3.00;2.80;;;30.40;95.00;;;;;;5085152;28;20198;-73
2022/06/27 10:41:40;;;;;;;2.97;2.20;;;30.50;94.60;;;;;;5084960;28;20191;-73
2022/06/27 10:44:31;;;;;;;2.58;2.33;;;30.70;95.00;;;;;;5071535;28;20290;-73
2022/06/27 10:47:00;;;;;;;2.53;2.35;;;30.80;93.20;;;;;;5045040;28;20188;-73
2022/06/27 10:49:29;;;;;;;2.50;2.40;;;31.00;93.50;;;;;;5044675;28;20228;-73
2022/06/27 10:52:32;;;;;;;2.63;2.40;;;31.10;93.40;;;;;;5048715;28;20306;-73
2022/06/27 10:54:59;;;;;;;2.80;2.70;;;31.20;93.40;;;;;;5064960;28;20286;-73
2022/06/27 10:57:46;;;;;;;5.55;3.00;;;31.30;93.80;;;;;;5064475;28;20689;-73
2022/06/27 11:00:41;;;;;;;3.97;2.45;;;31.40;93.60;;;;;;5064507;28;20567;-73
2022/06/27 11:03:10;;;;;;;3.13;2.53;;;31.50;92.40;;;;;;5064516;28;20204;-73
2022/06/27 11:05:57;;;;;;;2.88;2.67;;;31.60;92.20;;;;;;5064181;28;20666;-74
2022/06/27 11:08:25;;;;;;;2.45;2.35;;;31.70;92.50;;;;;;5064266;28;20191;-73
2022/06/27 11:10:53;;;;;;;2.90;2.65;;;31.90;92.60;;;;;;5064515;28;20231;-74
2022/06/27 11:13:36;;;;;;;3.08;2.72;;;32.00;92.00;;;;;;5064529;28;20207;-74
2022/06/27 11:16:03;;;;;;;3.22;3.00;;;32.10;91.70;;;;;;5064305;28;20204;-73
2022/06/27 11:18:41;;;;;;;3.25;2.90;;;32.20;91.60;;;;;;5064286;28;20559;-74
2022/06/27 11:21:09;;;;;;;3.28;2.92;;;32.40;91.90;;;;;;5064265;28;20191;-73
2022/06/27 11:23:51;;;;;;;2.90;2.80;;;32.60;91.60;;;;;;5063677;28;20608;-73
2022/06/27 11:26:18;;;;;;;3.10;2.92;;;32.60;91.40;;;;;;5064202;28;20203;-73
2022/06/27 11:34:15;;;;;;;4.32;3.35;;;32.80;91.30;;;;;;5056013;28;20297;-73
2022/06/27 11:36:43;;;;;;;3.65;3.03;;;32.80;92.50;;;;;;5063534;28;20208;-73
2022/06/27 11:39:09;;;;;;;3.25;2.97;;;32.90;91.90;;;;;;5063541;28;20212;-73
2022/06/27 11:41:39;;;;;;;3.17;2.90;;;33.00;91.50;;;;;;5053341;28;20208;-73
2022/06/27 11:44:08;;;;;;;2.92;2.67;;;33.10;90.80;;;;;;5050288;28;20208;-73
2022/06/27 11:46:37;;;;;;;3.33;3.03;;;33.30;90.80;;;;;;5050259;28;20436;-73
2022/06/27 11:49:09;;;;;;;2.88;2.63;;;33.40;91.10;;;;;;5049087;28;20631;-73
2022/06/27 11:51:39;;;;;;;2.60;2.50;;;33.50;87.30;;;;;;5049506;28;20200;-73
2022/06/27 11:54:09;;;;;;;2.63;2.35;;;33.60;84.80;;;;;;5050155;28;20204;-73
2022/06/27 11:56:38;;;;;;;3.15;2.83;;;33.80;85.60;;;;;;5050171;28;20291;-73
2022/06/27 11:59:07;;;;;;;3.20;2.90;;;33.90;86.20;;;;;;5050083;28;20579;-73
2022/06/27 12:01:38;;;;;;;3.70;2.70;;;33.90;85.40;;;;;;5050188;28;20204;-73
2022/06/27 12:04:12;;;;;;;3.13;2.80;;;33.90;85.00;;;;;;5049872;28;20192;-73
2022/06/27 12:06:54;;;;;;;4.20;2.95;;;34.00;85.40;;;;;;5049415;28;20578;-74
2022/06/27 12:09:22;;;;;;;2.70;2.50;;;34.00;86.00;;;;;;5049680;28;20223;-73
2022/06/27 12:12:01;;;;;;;3.45;2.40;;;34.00;86.30;;;;;;5049868;28;20212;-73
2022/06/27 12:14:30;;;;;;;2.97;2.72;;;34.10;90.20;;;;;;5049219;28;20740;-73
2022/06/27 12:16:59;;;;;;;4.60;2.80;;;34.10;87.10;;;;;;5049923;28;20223;-73
2022/06/27 12:19:27;;;;;;;2.75;2.63;;;34.30;85.90;;;;;;5049824;28;20216;-73
2022/06/27 12:21:55;;;;;;;2.65;2.55;;;34.40;84.20;;;;;;5049342;28;20262;-74
2022/06/27 12:24:22;;;;;;;2.75;2.63;;;34.60;83.80;;;;;;5049720;28;20216;-73
2022/06/27 12:26:49;;;;;;;4.13;2.83;;;34.80;84.20;;;;;;5049258;28;20207;-73
2022/06/27 12:29:17;;;;;;;2.90;2.70;;;34.90;83.80;;;;;;5053404;28;20242;-73
2022/06/27 12:31:44;;;;;;;2.92;2.70;;;35.00;83.20;;;;;;5069348;28;20573;-73
2022/06/27 12:34:10;;;;;;;3.08;2.88;;;35.00;82.90;;;;;;5069539;28;20214;-73
2022/06/27 12:36:37;;;;;;;2.50;2.40;;;35.00;84.40;;;;;;5066904;28;20211;-74
2022/06/27 12:39:07;;;;;;;2.28;2.08;;;35.00;80.40;;;;;;5049226;28;20233;-73
2022/06/27 12:41:34;;;;;;;2.63;2.42;;;35.00;81.80;;;;;;5049231;28;20666;-73
2022/06/27 12:44:01;;;;;;;2.28;2.17;;;34.90;80.30;;;;;;5049261;28;20206;-73
2022/06/27 12:46:28;;;;;;;2.22;2.10;;;34.80;80.40;;;;;;5048723;28;20204;-73
2022/06/27 12:48:56;;;;;;;2.35;2.00;;;34.80;78.90;;;;;;5049238;28;20204;-73
2022/06/27 12:51:24;;;;;;;2.20;2.00;;;34.80;78.30;;;;;;5048961;28;20231;-73
2022/06/27 12:53:52;;;;;;;2.55;2.30;;;34.90;78.00;;;;;;5028098;28;20213;-74
2022/06/27 12:56:20;;;;;;;2.67;2.17;;;35.00;76.90;;;;;;5029170;28;20212;-74
2022/06/27 12:58:47;;;;;;;2.10;2.00;;;35.10;78.20;;;;;;5028940;28;20209;-74
2022/06/27 13:01:14;;;;;;;2.22;2.03;;;35.20;77.30;;;;;;5029087;28;20207;-73
2022/06/27 13:03:41;;;;;;;2.25;2.15;;;35.40;76.70;;;;;;5028821;28;20208;-74